createdAt,value
2019-04-06T00:05:23.033Z,99.90
2019-04-06T00:08:06.824Z,99.90
2019-04-06T00:10:40.796Z,99.90
2019-04-06T00:13:13.298Z,99.90
2019-04-06T00:15:57.536Z,99.90
2019-04-06T00:18:41.547Z,99.90
2019-04-06T00:21:25.651Z,99.90
2019-04-06T00:23:58.081Z,99.90
2019-04-06T00:26:42.701Z,99.90
2019-04-06T00:29:30.936Z,99.90
2019-04-06T00:35:23.690Z,99.90
2019-04-06T00:38:07.449Z,99.90
2019-04-06T00:40:51.440Z,99.90
2019-04-06T00:43:39.316Z,99.90
2019-04-06T00:46:26.864Z,99.90
2019-04-06T00:49:12.138Z,99.90
2019-04-06T00:51:56.287Z,99.90
2019-04-06T00:54:40.365Z,99.90
2019-04-06T00:57:28.083Z,99.90
2019-04-06T01:00:12.499Z,99.90
2019-04-06T01:02:57.941Z,99.90
2019-04-06T01:05:42.554Z,99.90
2019-04-06T01:08:27.263Z,99.90
2019-04-06T01:11:10.749Z,99.90
2019-04-06T01:13:54.410Z,99.90
2019-04-06T01:16:26.735Z,99.90
2019-04-06T01:19:11.240Z,99.90
2019-04-06T01:21:55.542Z,99.90
2019-04-06T01:24:39.141Z,99.90
2019-04-06T01:27:22.965Z,99.90
2019-04-06T01:30:08.875Z,99.90
2019-04-06T01:32:52.556Z,99.90
2019-04-06T01:35:41.557Z,99.90
2019-04-06T01:38:26.153Z,99.90
2019-04-06T01:41:10.539Z,99.90
2019-04-06T01:43:54.510Z,99.90
2019-04-06T01:46:39.656Z,99.90
2019-04-06T01:49:23.214Z,99.90
2019-04-06T01:51:55.862Z,99.90
2019-04-06T01:54:40.268Z,99.90
2019-04-06T01:57:24.334Z,99.90
2019-04-06T02:00:09.210Z,99.90
2019-04-06T02:02:53.623Z,99.90
2019-04-06T02:05:37.212Z,99.90
2019-04-06T02:08:21.671Z,99.90
2019-04-06T02:10:54.074Z,99.90
2019-04-06T02:13:48.999Z,99.90
2019-04-06T02:16:32.940Z,99.90
2019-04-06T02:19:18.275Z,99.90
2019-04-06T02:22:04.408Z,99.90
2019-04-06T02:24:48.783Z,99.90
2019-04-06T02:27:32.736Z,99.90
2019-04-06T02:33:45.482Z,99.90
2019-04-06T02:36:52.600Z,99.90
2019-04-06T02:39:59.241Z,99.90
2019-04-06T02:42:53.981Z,99.90
2019-04-06T02:45:38.240Z,99.90
2019-04-06T02:48:22.783Z,99.90
2019-04-06T02:51:06.917Z,99.90
2019-04-06T02:53:39.195Z,99.90
2019-04-06T02:56:22.905Z,99.90
2019-04-06T02:59:07.007Z,99.90
2019-04-06T03:01:51.499Z,99.90
2019-04-06T03:04:35.358Z,99.90
2019-04-06T03:07:20.469Z,99.90
2019-04-06T03:10:08.413Z,99.90
2019-04-06T03:12:52.730Z,99.90
2019-04-06T03:15:36.776Z,99.90
2019-04-06T03:18:20.588Z,99.90
2019-04-06T03:21:05.118Z,99.90
2019-04-06T03:23:52.117Z,99.90
2019-04-06T03:26:36.217Z,99.90
2019-04-06T03:29:20.485Z,99.90
2019-04-06T03:32:04.450Z,99.90
2019-04-06T03:34:52.517Z,99.90
2019-04-06T03:37:36.437Z,99.90
2019-04-06T03:40:20.432Z,99.90
2019-04-06T03:43:05.580Z,99.90
2019-04-06T03:45:49.619Z,99.90
2019-04-06T03:48:34.836Z,99.90
2019-04-06T03:51:18.496Z,99.90
2019-04-06T03:54:03.231Z,99.90
2019-04-06T03:56:47.968Z,99.90
2019-04-06T03:59:32.183Z,99.90
2019-04-06T04:02:18.795Z,99.90
2019-04-06T04:05:04.665Z,99.90
2019-04-06T04:07:48.852Z,99.90
2019-04-06T04:10:33.013Z,99.90
2019-04-06T04:13:05.960Z,99.90
2019-04-06T04:15:49.559Z,99.90
2019-04-06T04:18:33.522Z,99.90
2019-04-06T04:21:18.931Z,99.90
2019-04-06T04:26:46.072Z,99.90
2019-04-06T04:29:30.298Z,99.90
2019-04-06T04:32:14.607Z,99.90
2019-04-06T04:35:00.081Z,99.90
2019-04-06T04:37:43.972Z,99.90
2019-04-06T04:40:28.191Z,99.90
2019-04-06T04:43:11.859Z,99.90
2019-04-06T04:45:45.299Z,99.90
2019-04-06T04:48:30.110Z,99.90
2019-04-06T04:51:13.706Z,99.90
2019-04-06T04:53:59.255Z,99.90
2019-04-06T04:56:44.852Z,99.90
2019-04-06T04:59:17.664Z,99.90
2019-04-06T05:02:01.891Z,99.90
2019-04-06T05:04:46.380Z,99.90
2019-04-06T05:07:30.793Z,99.90
2019-04-06T05:10:15.141Z,99.90
2019-04-06T05:13:01.027Z,99.90
2019-04-06T05:16:06.915Z,99.90
2019-04-06T05:18:52.461Z,99.90
2019-04-06T05:21:36.913Z,99.90
2019-04-06T05:24:09.179Z,99.90
2019-04-06T05:26:53.698Z,99.90
2019-04-06T05:29:38.219Z,99.90
2019-04-06T05:32:23.405Z,99.90
2019-04-06T05:35:07.568Z,99.90
2019-04-06T05:37:52.251Z,99.90
2019-04-06T05:40:40.111Z,99.90
2019-04-06T05:43:25.318Z,99.90
2019-04-06T05:45:59.675Z,99.90
2019-04-06T05:48:32.418Z,99.90
2019-04-06T05:51:18.084Z,99.90
2019-04-06T05:54:02.332Z,99.90
2019-04-06T05:56:46.146Z,99.90
2019-04-06T05:59:18.483Z,99.90
2019-04-06T06:02:02.793Z,99.90
2019-04-06T06:04:47.087Z,99.90
2019-04-06T06:07:31.637Z,99.90
2019-04-06T06:10:16.243Z,99.90
2019-04-06T06:13:02.222Z,99.90
2019-04-06T06:15:45.466Z,99.90
2019-04-06T06:18:29.551Z,99.90
2019-04-06T06:21:14.311Z,99.90
2019-04-06T06:23:58.692Z,99.90
2019-04-06T06:26:46.636Z,99.90
2019-04-06T06:29:30.587Z,99.90
2019-04-06T06:32:15.316Z,99.90
2019-04-06T06:34:59.585Z,99.90
2019-04-06T06:37:43.777Z,99.90
2019-04-06T06:45:54.134Z,99.90
2019-04-06T06:48:38.714Z,99.90
2019-04-06T06:51:22.941Z,99.90
2019-04-06T06:54:07.894Z,99.90
2019-04-06T06:56:52.473Z,99.90
2019-04-06T06:59:40.090Z,99.90
2019-04-06T07:02:28.061Z,99.90
2019-04-06T07:05:11.667Z,99.90
2019-04-06T07:07:56.030Z,99.90
2019-04-06T07:10:40.378Z,99.90
2019-04-06T07:13:24.458Z,99.90
2019-04-06T07:16:08.984Z,99.90
2019-04-06T07:18:57.493Z,99.90
2019-04-06T07:21:41.723Z,99.90
2019-04-06T07:24:26.425Z,99.90
2019-04-06T07:27:10.357Z,99.90
2019-04-06T07:29:55.832Z,99.90
2019-04-06T07:32:40.385Z,99.90
2019-04-06T07:35:25.521Z,99.90
2019-04-06T07:38:09.528Z,99.90
2019-04-06T07:40:55.712Z,99.90
2019-04-06T07:43:40.326Z,99.90
2019-04-06T07:46:24.347Z,99.90
2019-04-06T07:49:10.019Z,99.90
2019-04-06T07:51:53.849Z,99.90
2019-04-06T07:54:37.776Z,99.90
2019-04-06T07:57:21.708Z,99.90
2019-04-06T08:00:06.655Z,99.90
2019-04-06T08:02:50.366Z,99.90
2019-04-06T08:05:34.056Z,99.90
2019-04-06T08:08:18.064Z,99.90
2019-04-06T08:11:03.186Z,99.90
2019-04-06T08:13:46.719Z,99.90
2019-04-06T08:16:30.679Z,99.90
2019-04-06T08:19:15.423Z,99.90
2019-04-06T08:22:00.319Z,99.90
2019-04-06T08:24:48.148Z,99.90
2019-04-06T08:27:33.648Z,99.90
2019-04-06T08:33:27.724Z,99.90
2019-04-06T08:36:11.814Z,99.90
2019-04-06T08:38:45.044Z,99.90
2019-04-06T08:41:28.802Z,99.90
2019-04-06T08:44:12.677Z,99.90
2019-04-06T08:46:57.248Z,99.90
2019-04-06T08:49:40.897Z,99.90
2019-04-06T08:52:25.228Z,99.90
2019-04-06T08:55:09.563Z,99.90
2019-04-06T08:57:43.080Z,99.90
2019-04-06T09:00:28.485Z,99.90
2019-04-06T09:03:12.852Z,99.40
2019-04-06T09:05:56.794Z,99.10
2019-04-06T09:08:42.412Z,99.70
2019-04-06T09:11:27.517Z,98.60
2019-04-06T09:14:13.954Z,99.70
2019-04-06T09:16:58.442Z,97.70
2019-04-06T09:19:43.252Z,98.10
2019-04-06T09:22:27.601Z,98.50
2019-04-06T09:25:11.342Z,97.10
2019-04-06T09:27:55.183Z,97.20
2019-04-06T09:30:39.854Z,96.90
2019-04-06T09:33:24.427Z,96.40
2019-04-06T09:36:08.039Z,95.20
2019-04-06T09:38:52.310Z,95.40
2019-04-06T09:41:38.706Z,94.90
2019-04-06T09:47:55.898Z,95.70
2019-04-06T09:51:05.244Z,94.10
2019-04-06T09:54:09.067Z,95.90
2019-04-06T09:57:10.421Z,94.70
2019-04-06T09:59:59.714Z,94.20
2019-04-06T10:03:03.482Z,94.10
2019-04-06T10:09:20.889Z,93.50
2019-04-06T10:12:24.561Z,91.00
2019-04-06T10:15:19.330Z,91.90
2019-04-06T10:18:19.153Z,92.00
2019-04-06T10:21:17.481Z,92.40
2019-04-06T10:24:23.138Z,92.10
2019-04-06T10:27:46.908Z,93.50
2019-04-06T10:30:50.154Z,90.10
2019-04-06T10:33:53.067Z,90.70
2019-04-06T10:37:01.981Z,92.50
2019-04-06T10:48:49.810Z,89.00
2019-04-06T10:51:53.864Z,90.30
2019-04-06T10:54:57.094Z,84.50
2019-04-06T10:57:59.173Z,87.50
2019-04-06T11:00:39.874Z,84.30
2019-04-06T11:03:47.749Z,87.40
2019-04-06T11:06:42.641Z,86.50
2019-04-06T11:09:45.797Z,86.10
2019-04-06T11:12:49.103Z,85.00
2019-04-06T11:15:52.426Z,81.90
2019-04-06T11:18:55.769Z,79.20
2019-04-06T11:22:01.997Z,81.20
2019-04-06T11:25:05.387Z,86.10
2019-04-06T11:28:11.683Z,86.80
2019-04-06T11:31:14.946Z,83.80
2019-04-06T11:34:15.878Z,78.50
2019-04-06T11:37:14.031Z,76.70
2019-04-06T11:40:27.354Z,78.00
2019-04-06T11:43:30.752Z,78.90
2019-04-06T11:49:26.578Z,84.40
2019-04-06T11:52:30.033Z,84.80
2019-04-06T11:55:33.594Z,77.50
2019-04-06T11:58:27.061Z,73.10
2019-04-06T12:01:32.773Z,76.10
2019-04-06T12:07:40.324Z,81.40
2019-04-06T12:10:50.326Z,79.80
2019-04-06T12:13:53.018Z,80.90
2019-04-06T12:17:08.827Z,83.90
2019-04-06T12:20:12.118Z,83.50
2019-04-06T12:22:51.279Z,81.00
2019-04-06T12:25:45.097Z,84.10
2019-04-06T12:28:54.348Z,78.60
2019-04-06T12:31:44.844Z,72.80
2019-04-06T12:34:42.654Z,77.20
2019-04-06T12:37:34.822Z,81.70
2019-04-06T12:46:42.405Z,78.60
2019-04-06T12:49:46.270Z,76.30
2019-04-06T12:52:49.507Z,78.00
2019-04-06T12:55:55.955Z,78.10
2019-04-06T12:59:07.315Z,76.80
2019-04-06T13:02:14.340Z,74.00
2019-04-06T13:05:18.095Z,74.90
2019-04-06T13:08:20.573Z,75.80
2019-04-06T13:11:11.819Z,75.00
2019-04-06T13:14:15.550Z,74.80
2019-04-06T13:17:24.554Z,76.20
2019-04-06T13:20:33.728Z,76.00
2019-04-06T13:23:39.698Z,75.60
2019-04-06T13:26:59.578Z,77.30
2019-04-06T13:29:52.264Z,77.40
2019-04-06T13:35:58.876Z,78.60
2019-04-06T13:39:07.957Z,77.40
2019-04-06T13:42:14.458Z,78.60
2019-04-06T13:45:31.830Z,80.90
2019-04-06T13:48:36.250Z,81.90
2019-04-06T13:51:41.492Z,81.70
2019-04-06T13:54:44.793Z,81.00
2019-04-06T13:57:48.929Z,82.70
2019-04-06T14:00:47.691Z,80.20
2019-04-06T14:03:56.739Z,83.60
2019-04-06T14:06:59.932Z,84.30
2019-04-06T14:09:57.117Z,81.40
2019-04-06T14:12:56.068Z,83.10
2019-04-06T14:15:59.381Z,82.30
2019-04-06T14:19:02.988Z,83.90
2019-04-06T14:22:06.286Z,83.60
2019-04-06T14:24:57.253Z,83.60
2019-04-06T14:27:52.772Z,83.30
2019-04-06T14:30:55.761Z,82.10
2019-04-06T14:33:49.971Z,80.50
2019-04-06T14:37:11.476Z,80.00
2019-04-06T14:40:15.583Z,78.10
2019-04-06T14:43:21.197Z,77.80
2019-04-06T14:46:20.284Z,76.60
2019-04-06T14:49:31.466Z,74.90
2019-04-06T14:52:32.425Z,77.70
2019-04-06T14:55:37.689Z,77.30
2019-04-06T14:58:38.091Z,74.90
2019-04-06T15:01:55.048Z,76.50
2019-04-06T15:04:42.310Z,74.70
2019-04-06T15:07:59.828Z,75.20
2019-04-06T15:10:58.816Z,76.60
2019-04-06T15:14:06.700Z,76.10
2019-04-06T15:17:10.946Z,76.40
2019-04-06T15:20:03.381Z,78.20
2019-04-06T15:23:17.297Z,77.70
2019-04-06T15:26:08.550Z,77.90
2019-04-06T15:29:04.082Z,77.00
2019-04-06T15:32:07.358Z,75.60
2019-04-06T15:34:58.591Z,76.70
2019-04-06T15:37:59.123Z,76.10
2019-04-06T15:40:54.035Z,73.70
2019-04-06T15:43:46.353Z,74.00
2019-04-06T15:46:53.685Z,75.70
2019-04-06T15:49:57.633Z,76.40
2019-04-06T15:52:47.064Z,77.30
2019-04-06T15:55:52.558Z,75.80
2019-04-06T16:02:22.819Z,76.40
2019-04-06T16:05:26.388Z,77.30
2019-04-06T16:08:20.318Z,75.00
2019-04-06T16:14:29.566Z,76.10
2019-04-06T16:17:13.663Z,76.10
2019-04-06T16:20:16.156Z,77.00
2019-04-06T16:23:16.921Z,77.80
2019-04-06T16:26:08.451Z,76.20
2019-04-06T16:29:11.539Z,76.50
2019-04-06T16:32:17.386Z,77.80
2019-04-06T16:35:21.169Z,76.50
2019-04-06T16:38:15.662Z,77.50
2019-04-06T16:41:19.665Z,76.60
2019-04-06T16:44:24.102Z,76.80
2019-04-06T16:47:30.015Z,77.30
2019-04-06T16:50:27.648Z,77.30
2019-04-06T16:53:30.982Z,77.90
2019-04-06T16:56:36.488Z,83.80
2019-04-06T16:59:28.017Z,87.10
2019-04-06T17:05:27.204Z,89.70
2019-04-06T17:11:41.310Z,91.10
2019-04-06T17:14:52.006Z,91.30
2019-04-06T17:17:57.929Z,91.40
2019-04-06T17:20:49.399Z,91.50
2019-04-06T17:23:43.301Z,91.80
2019-04-06T17:26:53.572Z,91.80
2019-04-06T17:30:11.354Z,92.20
2019-04-06T17:33:15.180Z,92.00
2019-04-06T17:36:08.709Z,92.20
2019-04-06T17:39:13.913Z,92.40
2019-04-06T17:42:17.843Z,92.20
2019-04-06T17:45:21.060Z,92.50
2019-04-06T17:48:29.848Z,92.40
2019-04-06T17:51:40.854Z,92.40
2019-04-06T17:54:44.890Z,92.50
2019-04-06T17:57:37.029Z,92.90
2019-04-06T18:00:46.603Z,93.20
2019-04-06T18:03:51.901Z,93.40
2019-04-06T18:06:58.054Z,93.30
2019-04-06T18:10:01.590Z,93.50
2019-04-06T18:12:55.380Z,93.70
2019-04-06T18:15:40.513Z,94.10
2019-04-06T18:18:25.882Z,94.20
2019-04-06T18:21:10.107Z,94.40
2019-04-06T18:23:56.579Z,94.30
2019-04-06T18:26:42.069Z,94.70
2019-04-06T18:29:26.654Z,94.90
2019-04-06T18:35:21.505Z,95.20
2019-04-06T18:38:24.189Z,95.40
2019-04-06T18:41:09.505Z,95.50
2019-04-06T18:43:41.866Z,95.40
2019-04-06T18:46:26.004Z,95.50
2019-04-06T18:49:12.475Z,95.50
2019-04-06T18:51:56.097Z,95.50
2019-04-06T18:54:40.603Z,95.50
2019-04-06T18:57:25.361Z,95.60
2019-04-06T19:00:11.766Z,95.70
2019-04-06T19:02:55.583Z,95.10
2019-04-06T19:05:43.302Z,95.40
2019-04-06T19:08:27.398Z,95.10
2019-04-06T19:11:11.455Z,95.20
2019-04-06T19:13:56.576Z,95.30
2019-04-06T19:16:40.238Z,95.50
2019-04-06T19:19:24.837Z,95.40
2019-04-06T19:22:13.544Z,95.30
2019-04-06T19:24:59.311Z,95.40
2019-04-06T19:27:43.641Z,95.40
2019-04-06T19:30:29.063Z,95.40
2019-04-06T19:33:22.716Z,95.40
2019-04-06T19:35:58.825Z,95.80
2019-04-06T19:38:43.133Z,95.70
2019-04-06T19:41:27.114Z,95.90
2019-04-06T19:43:59.993Z,96.20
2019-04-06T19:46:32.879Z,96.30
2019-04-06T19:49:17.960Z,96.40
2019-04-06T19:52:01.997Z,96.50
2019-04-06T19:54:46.114Z,96.60
2019-04-06T19:57:31.652Z,97.30
2019-04-06T20:00:16.730Z,96.90
2019-04-06T20:03:00.646Z,97.00
2019-04-06T20:05:44.838Z,97.00
2019-04-06T20:08:28.959Z,97.00
2019-04-06T20:11:12.893Z,97.20
2019-04-06T20:13:57.488Z,97.20
2019-04-06T20:16:43.651Z,97.30
2019-04-06T20:19:27.586Z,97.20
2019-04-06T20:22:00.505Z,97.40
2019-04-06T20:24:44.376Z,97.50
2019-04-06T20:27:28.945Z,97.50
2019-04-06T20:30:13.161Z,97.60
2019-04-06T20:32:58.535Z,97.70
2019-04-06T20:35:42.800Z,98.00
2019-04-06T20:38:29.946Z,98.20
2019-04-06T20:41:14.121Z,98.00
2019-04-06T20:43:58.721Z,98.10
2019-04-06T20:46:42.988Z,98.10
2019-04-06T20:49:28.874Z,98.10
2019-04-06T20:52:12.579Z,98.30
2019-04-06T20:54:56.988Z,98.30
2019-04-06T20:57:42.937Z,98.40
2019-04-06T21:00:28.775Z,98.50
2019-04-06T21:03:12.413Z,98.50
2019-04-06T21:05:44.731Z,98.70
2019-04-06T21:08:29.718Z,98.80
2019-04-06T21:11:14.090Z,98.70
2019-04-06T21:13:58.592Z,99.10
2019-04-06T21:16:30.894Z,99.00
2019-04-06T21:19:29.054Z,99.00
2019-04-06T21:22:13.493Z,99.30
2019-04-06T21:24:58.419Z,99.60
2019-04-06T21:27:44.157Z,99.70
2019-04-06T21:30:18.166Z,99.60
2019-04-06T21:33:02.265Z,99.60
2019-04-06T21:35:49.012Z,99.80
2019-04-06T21:38:22.805Z,99.90
2019-04-06T21:41:07.285Z,99.80
2019-04-06T21:43:52.161Z,99.90
2019-04-06T21:46:26.248Z,99.90
2019-04-06T21:49:09.902Z,99.90
2019-04-06T21:51:42.175Z,99.90
2019-04-06T21:54:26.478Z,99.90
2019-04-06T21:57:10.695Z,99.90
2019-04-06T21:59:55.518Z,99.90
2019-04-06T22:02:40.251Z,99.90
2019-04-06T22:05:24.113Z,99.90
2019-04-06T22:08:08.447Z,99.90
2019-04-06T22:10:40.825Z,99.90
2019-04-06T22:13:25.070Z,99.90
2019-04-06T22:16:11.430Z,99.90
2019-04-06T22:18:56.437Z,99.90
2019-04-06T22:21:45.342Z,99.90
2019-04-06T22:24:18.640Z,99.90
2019-04-06T22:27:16.010Z,99.90
2019-04-06T22:35:32.836Z,99.90
2019-04-06T22:38:17.119Z,99.90
2019-04-06T22:41:05.146Z,99.90
2019-04-06T22:43:37.808Z,99.90
2019-04-06T22:46:22.273Z,99.90
2019-04-06T22:49:06.563Z,99.90
2019-04-06T22:51:51.584Z,99.90
2019-04-06T22:54:35.788Z,99.90
2019-04-06T22:57:20.331Z,99.90
2019-04-06T23:00:10.140Z,99.90
2019-04-06T23:06:18.026Z,99.90
2019-04-06T23:09:02.036Z,99.90
2019-04-06T23:11:50.454Z,99.90
2019-04-06T23:14:34.247Z,99.90
2019-04-06T23:17:18.978Z,99.90
2019-04-06T23:20:07.443Z,99.90
2019-04-06T23:22:55.828Z,99.90
2019-04-06T23:25:39.869Z,99.90
2019-04-06T23:28:23.963Z,99.90
2019-04-06T23:31:08.211Z,99.90
2019-04-06T23:33:52.944Z,99.90
2019-04-06T23:36:36.802Z,99.90
2019-04-06T23:39:21.777Z,99.90
2019-04-06T23:42:08.466Z,99.90
2019-04-06T23:44:52.363Z,99.90
2019-04-06T23:47:36.425Z,99.90
2019-04-06T23:50:26.259Z,99.90
2019-04-06T23:53:21.330Z,99.90
2019-04-06T23:56:10.125Z,99.90
2019-04-06T23:58:54.596Z,99.90
